Terminal Aerodrome Forecast
Issued by NWS

Home | Current Version | Previous Version | Text Only | Print | Product List | Glossary On
Versions: 1 2 3 4 5 6 7 8 9 10 11 12 13 14 15 16 17 18 19
330
FTUS43 KUNR 161730
TAFGCC
TAF
KGCC 161730Z 1618/1718 01008KT 1SM -SN OVC006
      TEMPO 1618/1622 1/2SM SN VV002
     FM170400 02004KT 5SM -SN OVC008
     FM170700 03004KT P6SM BKN008=

USA.gov is the U.S. government's official web portal to all federal, state and local government web resources and services.